sensor_id;sensor_type;location;lat;lon;timestamp;P1;durP1;ratioP1;P2;durP2;ratioP2
65234;SDS011;51820;48.374;10.930;2023-04-03T00:00:11;7.38;;;2.70;;
65234;SDS011;51820;48.374;10.930;2023-04-03T00:02:40;7.63;;;2.97;;
65234;SDS011;51820;48.374;10.930;2023-04-03T00:05:09;6.72;;;3.25;;
65234;SDS011;51820;48.374;10.930;2023-04-03T00:07:38;6.68;;;3.28;;
65234;SDS011;51820;48.374;10.930;2023-04-03T00:14:03;5.75;;;2.58;;
65234;SDS011;51820;48.374;10.930;2023-04-03T00:20:54;6.47;;;2.75;;
65234;SDS011;51820;48.374;10.930;2023-04-03T00:23:25;6.90;;;2.90;;
65234;SDS011;51820;48.374;10.930;2023-04-03T00:25:54;6.88;;;3.03;;
65234;SDS011;51820;48.374;10.930;2023-04-03T00:28:27;6.18;;;2.63;;
65234;SDS011;51820;48.374;10.930;2023-04-03T00:31:32;7.78;;;3.33;;
65234;SDS011;51820;48.374;10.930;2023-04-03T00:34:34;6.93;;;2.97;;
65234;SDS011;51820;48.374;10.930;2023-04-03T00:37:05;6.75;;;2.75;;
65234;SDS011;51820;48.374;10.930;2023-04-03T00:39:38;7.03;;;2.78;;
65234;SDS011;51820;48.374;10.930;2023-04-03T00:42:08;6.22;;;2.80;;
65234;SDS011;51820;48.374;10.930;2023-04-03T00:48:27;6.75;;;2.75;;
65234;SDS011;51820;48.374;10.930;2023-04-03T01:02:31;7.55;;;2.50;;
65234;SDS011;51820;48.374;10.930;2023-04-03T01:04:59;6.53;;;2.57;;
65234;SDS011;51820;48.374;10.930;2023-04-03T01:07:29;7.15;;;2.30;;
65234;SDS011;51820;48.374;10.930;2023-04-03T01:10:00;5.65;;;2.33;;
65234;SDS011;51820;48.374;10.930;2023-04-03T01:29:14;6.57;;;2.20;;
65234;SDS011;51820;48.374;10.930;2023-04-03T01:31:51;6.88;;;2.20;;
65234;SDS011;51820;48.374;10.930;2023-04-03T01:34:22;5.70;;;2.15;;
65234;SDS011;51820;48.374;10.930;2023-04-03T01:36:53;6.00;;;1.98;;
65234;SDS011;51820;48.374;10.930;2023-04-03T01:39:22;5.85;;;2.10;;
65234;SDS011;51820;48.374;10.930;2023-04-03T01:41:51;5.30;;;2.15;;
65234;SDS011;51820;48.374;10.930;2023-04-03T01:44:26;5.88;;;2.17;;
65234;SDS011;51820;48.374;10.930;2023-04-03T01:46:58;5.45;;;1.88;;
65234;SDS011;51820;48.374;10.930;2023-04-03T01:49:27;5.80;;;1.98;;
65234;SDS011;51820;48.374;10.930;2023-04-03T01:52:01;5.47;;;2.30;;
65234;SDS011;51820;48.374;10.930;2023-04-03T01:54:30;5.00;;;1.90;;
65234;SDS011;51820;48.374;10.930;2023-04-03T01:56:59;7.45;;;2.20;;
65234;SDS011;51820;48.374;10.930;2023-04-03T01:59:28;5.85;;;2.15;;
65234;SDS011;51820;48.374;10.930;2023-04-03T02:01:58;6.70;;;2.17;;
65234;SDS011;51820;48.374;10.930;2023-04-03T02:04:29;5.55;;;2.10;;
65234;SDS011;51820;48.374;10.930;2023-04-03T02:11:12;5.97;;;2.08;;
65234;SDS011;51820;48.374;10.930;2023-04-03T02:14:31;5.03;;;1.80;;
65234;SDS011;51820;48.374;10.930;2023-04-03T02:17:07;5.43;;;2.03;;
65234;SDS011;51820;48.374;10.930;2023-04-03T02:24:06;9.35;;;2.30;;
65234;SDS011;51820;48.374;10.930;2023-04-03T02:26:35;6.72;;;2.15;;
65234;SDS011;51820;48.374;10.930;2023-04-03T02:29:04;5.88;;;1.85;;
65234;SDS011;51820;48.374;10.930;2023-04-03T02:31:34;5.78;;;2.10;;
65234;SDS011;51820;48.374;10.930;2023-04-03T02:34:05;16.23;;;2.40;;
65234;SDS011;51820;48.374;10.930;2023-04-03T02:36:35;6.20;;;2.17;;
65234;SDS011;51820;48.374;10.930;2023-04-03T02:39:09;5.18;;;2.15;;
65234;SDS011;51820;48.374;10.930;2023-04-03T02:41:38;5.60;;;2.25;;
65234;SDS011;51820;48.374;10.930;2023-04-03T02:44:18;5.15;;;2.10;;
65234;SDS011;51820;48.374;10.930;2023-04-03T02:46:47;5.97;;;1.80;;
65234;SDS011;51820;48.374;10.930;2023-04-03T02:49:21;5.38;;;2.13;;
65234;SDS011;51820;48.374;10.930;2023-04-03T02:52:31;5.50;;;2.00;;
65234;SDS011;51820;48.374;10.930;2023-04-03T02:55:08;5.88;;;2.00;;
65234;SDS011;51820;48.374;10.930;2023-04-03T02:57:37;5.78;;;2.00;;
65234;SDS011;51820;48.374;10.930;2023-04-03T03:00:06;7.03;;;2.47;;
65234;SDS011;51820;48.374;10.930;2023-04-03T03:02:36;7.20;;;2.00;;
65234;SDS011;51820;48.374;10.930;2023-04-03T03:05:06;6.93;;;2.40;;
65234;SDS011;51820;48.374;10.930;2023-04-03T03:07:35;5.15;;;2.13;;
65234;SDS011;51820;48.374;10.930;2023-04-03T03:10:04;6.45;;;2.38;;
65234;SDS011;51820;48.374;10.930;2023-04-03T03:12:33;5.78;;;2.40;;
65234;SDS011;51820;48.374;10.930;2023-04-03T03:15:02;6.93;;;2.08;;
65234;SDS011;51820;48.374;10.930;2023-04-03T03:17:31;7.75;;;2.42;;
65234;SDS011;51820;48.374;10.930;2023-04-03T03:20:00;5.65;;;2.38;;
65234;SDS011;51820;48.374;10.930;2023-04-03T03:22:30;7.43;;;2.53;;
65234;SDS011;51820;48.374;10.930;2023-04-03T03:24:58;5.25;;;2.15;;
65234;SDS011;51820;48.374;10.930;2023-04-03T03:27:27;6.50;;;2.40;;
65234;SDS011;51820;48.374;10.930;2023-04-03T03:29:56;5.35;;;2.30;;
65234;SDS011;51820;48.374;10.930;2023-04-03T03:32:28;5.55;;;2.33;;
65234;SDS011;51820;48.374;10.930;2023-04-03T03:35:00;6.80;;;2.65;;
65234;SDS011;51820;48.374;10.930;2023-04-03T03:37:32;6.45;;;2.42;;
65234;SDS011;51820;48.374;10.930;2023-04-03T03:40:02;5.10;;;2.10;;
65234;SDS011;51820;48.374;10.930;2023-04-03T03:42:31;7.68;;;2.28;;
65234;SDS011;51820;48.374;10.930;2023-04-03T03:45:01;8.98;;;2.35;;
65234;SDS011;51820;48.374;10.930;2023-04-03T03:47:30;6.28;;;2.28;;
65234;SDS011;51820;48.374;10.930;2023-04-03T03:49:58;6.00;;;2.63;;
65234;SDS011;51820;48.374;10.930;2023-04-03T03:52:28;6.43;;;1.95;;
65234;SDS011;51820;48.374;10.930;2023-04-03T03:54:58;6.88;;;2.47;;
65234;SDS011;51820;48.374;10.930;2023-04-03T03:57:27;7.93;;;2.38;;
65234;SDS011;51820;48.374;10.930;2023-04-03T03:59:57;7.32;;;2.40;;
65234;SDS011;51820;48.374;10.930;2023-04-03T04:02:26;5.88;;;2.38;;
65234;SDS011;51820;48.374;10.930;2023-04-03T04:04:54;5.90;;;2.20;;
65234;SDS011;51820;48.374;10.930;2023-04-03T04:07:23;5.75;;;2.17;;
65234;SDS011;51820;48.374;10.930;2023-04-03T04:09:55;6.70;;;2.75;;
65234;SDS011;51820;48.374;10.930;2023-04-03T04:12:25;5.88;;;2.20;;
65234;SDS011;51820;48.374;10.930;2023-04-03T04:14:54;5.50;;;2.20;;
65234;SDS011;51820;48.374;10.930;2023-04-03T04:17:23;7.68;;;2.70;;
65234;SDS011;51820;48.374;10.930;2023-04-03T04:19:52;5.65;;;2.35;;
65234;SDS011;51820;48.374;10.930;2023-04-03T04:22:21;5.78;;;2.38;;
65234;SDS011;51820;48.374;10.930;2023-04-03T04:24:50;8.63;;;2.63;;
65234;SDS011;51820;48.374;10.930;2023-04-03T04:27:18;5.70;;;2.58;;
65234;SDS011;51820;48.374;10.930;2023-04-03T04:29:48;6.95;;;2.60;;
65234;SDS011;51820;48.374;10.930;2023-04-03T04:32:17;5.68;;;2.60;;
65234;SDS011;51820;48.374;10.930;2023-04-03T04:34:46;5.70;;;2.47;;
65234;SDS011;51820;48.374;10.930;2023-04-03T04:37:14;7.00;;;2.67;;
65234;SDS011;51820;48.374;10.930;2023-04-03T04:39:46;6.82;;;2.53;;
65234;SDS011;51820;48.374;10.930;2023-04-03T04:42:14;7.13;;;2.95;;
65234;SDS011;51820;48.374;10.930;2023-04-03T04:44:45;6.20;;;2.60;;
65234;SDS011;51820;48.374;10.930;2023-04-03T04:47:17;6.05;;;2.67;;
65234;SDS011;51820;48.374;10.930;2023-04-03T04:49:46;5.70;;;2.50;;
65234;SDS011;51820;48.374;10.930;2023-04-03T04:52:15;5.68;;;2.15;;
65234;SDS011;51820;48.374;10.930;2023-04-03T04:54:44;6.38;;;2.22;;
65234;SDS011;51820;48.374;10.930;2023-04-03T04:57:12;6.38;;;2.55;;
65234;SDS011;51820;48.374;10.930;2023-04-03T04:59:42;7.45;;;2.60;;
65234;SDS011;51820;48.374;10.930;2023-04-03T05:02:11;6.60;;;2.43;;
65234;SDS011;51820;48.374;10.930;2023-04-03T05:04:43;6.00;;;2.40;;
65234;SDS011;51820;48.374;10.930;2023-04-03T05:07:18;6.63;;;2.50;;
65234;SDS011;51820;48.374;10.930;2023-04-03T05:09:47;8.43;;;3.28;;
65234;SDS011;51820;48.374;10.930;2023-04-03T05:12:16;8.07;;;3.60;;
65234;SDS011;51820;48.374;10.930;2023-04-03T05:14:52;8.98;;;3.40;;
65234;SDS011;51820;48.374;10.930;2023-04-03T05:17:21;8.50;;;3.28;;
65234;SDS011;51820;48.374;10.930;2023-04-03T05:19:54;6.22;;;2.75;;
65234;SDS011;51820;48.374;10.930;2023-04-03T05:22:23;9.18;;;2.70;;
65234;SDS011;51820;48.374;10.930;2023-04-03T05:24:55;6.07;;;2.78;;
65234;SDS011;51820;48.374;10.930;2023-04-03T05:27:24;6.40;;;2.83;;
65234;SDS011;51820;48.374;10.930;2023-04-03T05:29:57;7.82;;;3.13;;
65234;SDS011;51820;48.374;10.930;2023-04-03T05:32:26;9.93;;;3.00;;
65234;SDS011;51820;48.374;10.930;2023-04-03T05:35:09;6.63;;;2.67;;
65234;SDS011;51820;48.374;10.930;2023-04-03T05:37:39;6.35;;;2.60;;
65234;SDS011;51820;48.374;10.930;2023-04-03T05:40:09;8.40;;;2.57;;
65234;SDS011;51820;48.374;10.930;2023-04-03T05:42:42;8.45;;;2.90;;
65234;SDS011;51820;48.374;10.930;2023-04-03T05:45:11;6.43;;;2.28;;
65234;SDS011;51820;48.374;10.930;2023-04-03T05:47:39;7.03;;;2.85;;
65234;SDS011;51820;48.374;10.930;2023-04-03T05:50:15;8.70;;;2.90;;
65234;SDS011;51820;48.374;10.930;2023-04-03T05:52:44;8.98;;;3.13;;
65234;SDS011;51820;48.374;10.930;2023-04-03T05:55:16;6.60;;;2.65;;
65234;SDS011;51820;48.374;10.930;2023-04-03T05:57:44;9.73;;;3.25;;
65234;SDS011;51820;48.374;10.930;2023-04-03T06:00:14;6.75;;;2.85;;
65234;SDS011;51820;48.374;10.930;2023-04-03T06:02:54;7.40;;;2.97;;
65234;SDS011;51820;48.374;10.930;2023-04-03T06:05:40;35.40;;;16.50;;
65234;SDS011;51820;48.374;10.930;2023-04-03T06:08:11;16.10;;;7.28;;
65234;SDS011;51820;48.374;10.930;2023-04-03T06:10:42;15.38;;;7.43;;
65234;SDS011;51820;48.374;10.930;2023-04-03T06:13:13;8.38;;;3.50;;
65234;SDS011;51820;48.374;10.930;2023-04-03T06:15:43;7.05;;;3.00;;
65234;SDS011;51820;48.374;10.930;2023-04-03T06:18:11;9.50;;;3.30;;
65234;SDS011;51820;48.374;10.930;2023-04-03T06:20:44;8.60;;;3.20;;
65234;SDS011;51820;48.374;10.930;2023-04-03T06:23:20;9.20;;;2.83;;
65234;SDS011;51820;48.374;10.930;2023-04-03T06:25:52;9.93;;;3.25;;
65234;SDS011;51820;48.374;10.930;2023-04-03T06:28:21;7.97;;;3.33;;
65234;SDS011;51820;48.374;10.930;2023-04-03T06:30:51;8.23;;;3.10;;
65234;SDS011;51820;48.374;10.930;2023-04-03T06:33:20;7.20;;;3.45;;
65234;SDS011;51820;48.374;10.930;2023-04-03T06:36:03;6.97;;;3.30;;
65234;SDS011;51820;48.374;10.930;2023-04-03T06:42:38;6.88;;;3.10;;
65234;SDS011;51820;48.374;10.930;2023-04-03T06:45:12;7.45;;;3.28;;
65234;SDS011;51820;48.374;10.930;2023-04-03T06:50:41;8.07;;;3.10;;
65234;SDS011;51820;48.374;10.930;2023-04-03T06:53:14;8.43;;;3.58;;
65234;SDS011;51820;48.374;10.930;2023-04-03T06:55:47;9.02;;;3.13;;
65234;SDS011;51820;48.374;10.930;2023-04-03T06:58:18;8.48;;;3.90;;
65234;SDS011;51820;48.374;10.930;2023-04-03T07:00:57;9.00;;;3.40;;
65234;SDS011;51820;48.374;10.930;2023-04-03T07:03:43;10.10;;;3.30;;
65234;SDS011;51820;48.374;10.930;2023-04-03T07:06:24;9.55;;;3.30;;
65234;SDS011;51820;48.374;10.930;2023-04-03T07:12:15;8.10;;;3.00;;
65234;SDS011;51820;48.374;10.930;2023-04-03T07:14:58;7.65;;;3.80;;
65234;SDS011;51820;48.374;10.930;2023-04-03T07:17:32;7.15;;;2.83;;
65234;SDS011;51820;48.374;10.930;2023-04-03T07:20:11;9.05;;;3.38;;
65234;SDS011;51820;48.374;10.930;2023-04-03T07:22:41;8.82;;;3.25;;
65234;SDS011;51820;48.374;10.930;2023-04-03T07:25:12;8.27;;;3.60;;
65234;SDS011;51820;48.374;10.930;2023-04-03T07:27:43;7.80;;;3.63;;
65234;SDS011;51820;48.374;10.930;2023-04-03T07:30:13;7.05;;;3.00;;
65234;SDS011;51820;48.374;10.930;2023-04-03T07:32:42;9.23;;;3.50;;
65234;SDS011;51820;48.374;10.930;2023-04-03T07:35:18;8.93;;;3.33;;
65234;SDS011;51820;48.374;10.930;2023-04-03T07:37:53;7.68;;;3.05;;
65234;SDS011;51820;48.374;10.930;2023-04-03T07:40:24;8.48;;;3.45;;
65234;SDS011;51820;48.374;10.930;2023-04-03T07:42:54;6.93;;;3.08;;
65234;SDS011;51820;48.374;10.930;2023-04-03T07:45:27;9.18;;;3.47;;
65234;SDS011;51820;48.374;10.930;2023-04-03T07:47:59;7.28;;;3.40;;
65234;SDS011;51820;48.374;10.930;2023-04-03T07:50:39;7.45;;;3.55;;
65234;SDS011;51820;48.374;10.930;2023-04-03T07:53:18;8.98;;;3.22;;
65234;SDS011;51820;48.374;10.930;2023-04-03T07:55:53;9.77;;;3.33;;
65234;SDS011;51820;48.374;10.930;2023-04-03T07:58:24;7.07;;;3.28;;
65234;SDS011;51820;48.374;10.930;2023-04-03T08:00:53;8.95;;;3.47;;
65234;SDS011;51820;48.374;10.930;2023-04-03T08:03:37;8.65;;;3.30;;
65234;SDS011;51820;48.374;10.930;2023-04-03T08:06:50;7.82;;;3.17;;
65234;SDS011;51820;48.374;10.930;2023-04-03T08:12:21;7.28;;;3.10;;
65234;SDS011;51820;48.374;10.930;2023-04-03T08:33:43;7.88;;;3.55;;
65234;SDS011;51820;48.374;10.930;2023-04-03T08:36:16;9.60;;;3.83;;
65234;SDS011;51820;48.374;10.930;2023-04-03T08:38:50;12.23;;;4.22;;
65234;SDS011;51820;48.374;10.930;2023-04-03T08:41:25;8.38;;;3.25;;
65234;SDS011;51820;48.374;10.930;2023-04-03T08:44:14;8.48;;;2.80;;
65234;SDS011;51820;48.374;10.930;2023-04-03T08:46:56;7.72;;;3.20;;
65234;SDS011;51820;48.374;10.930;2023-04-03T08:52:34;6.57;;;2.63;;
65234;SDS011;51820;48.374;10.930;2023-04-03T08:55:13;6.43;;;2.50;;
65234;SDS011;51820;48.374;10.930;2023-04-03T08:57:50;7.45;;;3.00;;
65234;SDS011;51820;48.374;10.930;2023-04-03T09:00:36;9.05;;;2.83;;
65234;SDS011;51820;48.374;10.930;2023-04-03T09:03:23;7.10;;;2.83;;
65234;SDS011;51820;48.374;10.930;2023-04-03T09:06:02;7.70;;;2.58;;
65234;SDS011;51820;48.374;10.930;2023-04-03T09:08:48;6.55;;;2.88;;
65234;SDS011;51820;48.374;10.930;2023-04-03T09:11:36;6.38;;;3.00;;
65234;SDS011;51820;48.374;10.930;2023-04-03T09:15:02;7.15;;;2.47;;
65234;SDS011;51820;48.374;10.930;2023-04-03T09:18:13;8.52;;;3.05;;
65234;SDS011;51820;48.374;10.930;2023-04-03T09:21:02;8.15;;;3.50;;
65234;SDS011;51820;48.374;10.930;2023-04-03T09:23:46;6.95;;;3.28;;
65234;SDS011;51820;48.374;10.930;2023-04-03T09:26:44;6.28;;;3.00;;
65234;SDS011;51820;48.374;10.930;2023-04-03T09:29:23;7.17;;;3.00;;
65234;SDS011;51820;48.374;10.930;2023-04-03T09:32:35;9.35;;;3.60;;
65234;SDS011;51820;48.374;10.930;2023-04-03T09:36:03;7.10;;;2.90;;
65234;SDS011;51820;48.374;10.930;2023-04-03T09:38:32;6.40;;;2.80;;
65234;SDS011;51820;48.374;10.930;2023-04-03T09:41:06;7.57;;;3.03;;
65234;SDS011;51820;48.374;10.930;2023-04-03T09:43:51;7.75;;;3.17;;
65234;SDS011;51820;48.374;10.930;2023-04-03T09:46:31;7.25;;;2.90;;
65234;SDS011;51820;48.374;10.930;2023-04-03T09:49:02;11.02;;;3.25;;
65234;SDS011;51820;48.374;10.930;2023-04-03T09:51:36;8.60;;;3.30;;
65234;SDS011;51820;48.374;10.930;2023-04-03T09:54:23;6.32;;;2.65;;
65234;SDS011;51820;48.374;10.930;2023-04-03T09:57:01;7.83;;;2.97;;
65234;SDS011;51820;48.374;10.930;2023-04-03T09:59:33;7.10;;;2.97;;
65234;SDS011;51820;48.374;10.930;2023-04-03T10:02:15;7.20;;;3.25;;
65234;SDS011;51820;48.374;10.930;2023-04-03T10:05:23;8.43;;;2.80;;
65234;SDS011;51820;48.374;10.930;2023-04-03T10:08:23;8.57;;;3.40;;
65234;SDS011;51820;48.374;10.930;2023-04-03T10:11:06;8.23;;;2.90;;
65234;SDS011;51820;48.374;10.930;2023-04-03T10:13:53;6.22;;;2.70;;
65234;SDS011;51820;48.374;10.930;2023-04-03T10:16:29;8.05;;;3.30;;
65234;SDS011;51820;48.374;10.930;2023-04-03T10:19:25;6.90;;;2.70;;
65234;SDS011;51820;48.374;10.930;2023-04-03T10:22:30;7.72;;;3.17;;
65234;SDS011;51820;48.374;10.930;2023-04-03T10:25:30;6.65;;;3.10;;
65234;SDS011;51820;48.374;10.930;2023-04-03T10:28:26;10.98;;;3.92;;
65234;SDS011;51820;48.374;10.930;2023-04-03T10:31:04;8.85;;;3.40;;
65234;SDS011;51820;48.374;10.930;2023-04-03T10:33:46;11.27;;;3.90;;
65234;SDS011;51820;48.374;10.930;2023-04-03T10:36:36;14.85;;;4.82;;
65234;SDS011;51820;48.374;10.930;2023-04-03T10:39:16;15.80;;;5.47;;
65234;SDS011;51820;48.374;10.930;2023-04-03T10:42:11;10.13;;;3.85;;
65234;SDS011;51820;48.374;10.930;2023-04-03T10:44:50;6.95;;;3.58;;
65234;SDS011;51820;48.374;10.930;2023-04-03T10:48:10;6.63;;;3.00;;
65234;SDS011;51820;48.374;10.930;2023-04-03T10:50:47;7.30;;;2.95;;
65234;SDS011;51820;48.374;10.930;2023-04-03T10:57:41;10.90;;;3.88;;
65234;SDS011;51820;48.374;10.930;2023-04-03T11:00:14;7.82;;;3.35;;
65234;SDS011;51820;48.374;10.930;2023-04-03T11:02:50;7.70;;;3.25;;
65234;SDS011;51820;48.374;10.930;2023-04-03T11:05:26;7.65;;;3.22;;
65234;SDS011;51820;48.374;10.930;2023-04-03T11:07:59;7.57;;;3.00;;
65234;SDS011;51820;48.374;10.930;2023-04-03T11:14:28;9.10;;;3.03;;
65234;SDS011;51820;48.374;10.930;2023-04-03T11:17:04;8.18;;;3.40;;
65234;SDS011;51820;48.374;10.930;2023-04-03T11:19:45;9.63;;;3.40;;
65234;SDS011;51820;48.374;10.930;2023-04-03T11:22:24;8.13;;;3.20;;
65234;SDS011;51820;48.374;10.930;2023-04-03T11:25:02;7.20;;;3.10;;
65234;SDS011;51820;48.374;10.930;2023-04-03T11:27:38;8.15;;;3.15;;
65234;SDS011;51820;48.374;10.930;2023-04-03T11:30:15;7.63;;;2.50;;
65234;SDS011;51820;48.374;10.930;2023-04-03T11:33:05;9.32;;;3.28;;
65234;SDS011;51820;48.374;10.930;2023-04-03T11:35:42;6.00;;;2.60;;
65234;SDS011;51820;48.374;10.930;2023-04-03T11:38:14;7.05;;;2.90;;
65234;SDS011;51820;48.374;10.930;2023-04-03T11:40:51;17.30;;;6.88;;
65234;SDS011;51820;48.374;10.930;2023-04-03T11:43:23;7.90;;;2.95;;
65234;SDS011;51820;48.374;10.930;2023-04-03T11:46:05;7.28;;;2.95;;
65234;SDS011;51820;48.374;10.930;2023-04-03T11:48:49;8.17;;;2.77;;
65234;SDS011;51820;48.374;10.930;2023-04-03T12:12:58;6.80;;;2.17;;
65234;SDS011;51820;48.374;10.930;2023-04-03T12:18:53;5.83;;;2.13;;
65234;SDS011;51820;48.374;10.930;2023-04-03T12:24:35;7.35;;;2.50;;
65234;SDS011;51820;48.374;10.930;2023-04-03T12:30:12;8.43;;;2.30;;
65234;SDS011;51820;48.374;10.930;2023-04-03T12:33:13;9.87;;;2.70;;
65234;SDS011;51820;48.374;10.930;2023-04-03T12:35:59;8.88;;;2.10;;
65234;SDS011;51820;48.374;10.930;2023-04-03T12:38:45;5.28;;;2.10;;
65234;SDS011;51820;48.374;10.930;2023-04-03T12:41:45;5.40;;;1.80;;
65234;SDS011;51820;48.374;10.930;2023-04-03T12:45:23;4.80;;;1.70;;
65234;SDS011;51820;48.374;10.930;2023-04-03T12:48:21;6.07;;;2.10;;
65234;SDS011;51820;48.374;10.930;2023-04-03T12:50:56;5.32;;;1.73;;
65234;SDS011;51820;48.374;10.930;2023-04-03T12:53:57;6.32;;;1.80;;
65234;SDS011;51820;48.374;10.930;2023-04-03T13:03:57;7.80;;;2.10;;
65234;SDS011;51820;48.374;10.930;2023-04-03T13:06:57;7.18;;;2.28;;
65234;SDS011;51820;48.374;10.930;2023-04-03T13:13:18;6.68;;;2.13;;
65234;SDS011;51820;48.374;10.930;2023-04-03T13:15:55;5.03;;;1.48;;
65234;SDS011;51820;48.374;10.930;2023-04-03T13:18:30;6.03;;;1.77;;
65234;SDS011;51820;48.374;10.930;2023-04-03T13:21:07;5.32;;;1.55;;
65234;SDS011;51820;48.374;10.930;2023-04-03T13:23:44;4.80;;;1.73;;
65234;SDS011;51820;48.374;10.930;2023-04-03T13:26:19;5.55;;;1.25;;
65234;SDS011;51820;48.374;10.930;2023-04-03T13:28:49;6.88;;;1.90;;
65234;SDS011;51820;48.374;10.930;2023-04-03T13:35:23;4.80;;;1.80;;
65234;SDS011;51820;48.374;10.930;2023-04-03T13:41:20;5.30;;;1.75;;
65234;SDS011;51820;48.374;10.930;2023-04-03T13:44:08;5.38;;;1.38;;
65234;SDS011;51820;48.374;10.930;2023-04-03T13:46:52;5.80;;;1.60;;
65234;SDS011;51820;48.374;10.930;2023-04-03T13:49:40;6.18;;;2.20;;
65234;SDS011;51820;48.374;10.930;2023-04-03T13:52:22;6.95;;;1.75;;
65234;SDS011;51820;48.374;10.930;2023-04-03T13:54:59;6.05;;;1.50;;
65234;SDS011;51820;48.374;10.930;2023-04-03T13:57:51;6.88;;;1.48;;
65234;SDS011;51820;48.374;10.930;2023-04-03T14:00:54;6.20;;;1.43;;
65234;SDS011;51820;48.374;10.930;2023-04-03T14:03:37;6.45;;;1.45;;
65234;SDS011;51820;48.374;10.930;2023-04-03T14:06:15;4.63;;;1.27;;
65234;SDS011;51820;48.374;10.930;2023-04-03T14:08:46;5.72;;;1.48;;
65234;SDS011;51820;48.374;10.930;2023-04-03T14:11:16;4.57;;;1.23;;
65234;SDS011;51820;48.374;10.930;2023-04-03T14:16:53;5.00;;;1.70;;
65234;SDS011;51820;48.374;10.930;2023-04-03T14:19:24;4.90;;;1.20;;
65234;SDS011;51820;48.374;10.930;2023-04-03T14:21:54;5.38;;;1.30;;
65234;SDS011;51820;48.374;10.930;2023-04-03T14:24:27;6.05;;;1.40;;
65234;SDS011;51820;48.374;10.930;2023-04-03T14:26:56;4.40;;;1.43;;
65234;SDS011;51820;48.374;10.930;2023-04-03T14:29:25;4.32;;;1.40;;
65234;SDS011;51820;48.374;10.930;2023-04-03T14:32:50;4.97;;;1.33;;
65234;SDS011;51820;48.374;10.930;2023-04-03T14:35:19;4.40;;;1.10;;
65234;SDS011;51820;48.374;10.930;2023-04-03T14:37:47;4.30;;;1.20;;
65234;SDS011;51820;48.374;10.930;2023-04-03T14:40:17;8.07;;;1.40;;
65234;SDS011;51820;48.374;10.930;2023-04-03T14:42:48;8.70;;;1.50;;
65234;SDS011;51820;48.374;10.930;2023-04-03T14:45:17;5.10;;;1.60;;
65234;SDS011;51820;48.374;10.930;2023-04-03T14:47:47;4.63;;;1.10;;
65234;SDS011;51820;48.374;10.930;2023-04-03T14:50:20;5.10;;;1.20;;
65234;SDS011;51820;48.374;10.930;2023-04-03T14:52:51;4.53;;;1.03;;
65234;SDS011;51820;48.374;10.930;2023-04-03T14:55:25;3.83;;;0.80;;
65234;SDS011;51820;48.374;10.930;2023-04-03T14:57:54;3.95;;;1.10;;
65234;SDS011;51820;48.374;10.930;2023-04-03T15:00:23;6.03;;;1.42;;
65234;SDS011;51820;48.374;10.930;2023-04-03T15:02:51;4.10;;;1.40;;
65234;SDS011;51820;48.374;10.930;2023-04-03T15:05:21;5.13;;;1.20;;
65234;SDS011;51820;48.374;10.930;2023-04-03T15:07:50;3.83;;;1.13;;
65234;SDS011;51820;48.374;10.930;2023-04-03T15:10:22;6.07;;;1.30;;
65234;SDS011;51820;48.374;10.930;2023-04-03T15:12:54;5.95;;;1.40;;
65234;SDS011;51820;48.374;10.930;2023-04-03T15:15:23;5.15;;;1.38;;
65234;SDS011;51820;48.374;10.930;2023-04-03T15:17:53;5.30;;;1.30;;
65234;SDS011;51820;48.374;10.930;2023-04-03T15:20:27;6.28;;;2.00;;
65234;SDS011;51820;48.374;10.930;2023-04-03T15:22:59;6.82;;;2.08;;
65234;SDS011;51820;48.374;10.930;2023-04-03T15:25:28;4.97;;;1.40;;
65234;SDS011;51820;48.374;10.930;2023-04-03T15:27:59;6.95;;;1.60;;
65234;SDS011;51820;48.374;10.930;2023-04-03T15:30:28;5.13;;;1.40;;
65234;SDS011;51820;48.374;10.930;2023-04-03T15:32:56;4.65;;;1.15;;
65234;SDS011;51820;48.374;10.930;2023-04-03T15:35:26;4.55;;;1.35;;
65234;SDS011;51820;48.374;10.930;2023-04-03T15:37:54;5.53;;;1.45;;
65234;SDS011;51820;48.374;10.930;2023-04-03T15:40:25;4.00;;;1.13;;
65234;SDS011;51820;48.374;10.930;2023-04-03T15:42:54;5.33;;;1.70;;
65234;SDS011;51820;48.374;10.930;2023-04-03T15:45:22;6.03;;;1.23;;
65234;SDS011;51820;48.374;10.930;2023-04-03T15:47:51;7.28;;;1.30;;
65234;SDS011;51820;48.374;10.930;2023-04-03T15:50:20;5.13;;;1.40;;
65234;SDS011;51820;48.374;10.930;2023-04-03T15:52:51;7.30;;;2.30;;
65234;SDS011;51820;48.374;10.930;2023-04-03T15:55:28;3.97;;;1.20;;
65234;SDS011;51820;48.374;10.930;2023-04-03T15:57:58;4.20;;;1.08;;
65234;SDS011;51820;48.374;10.930;2023-04-03T16:00:29;7.45;;;2.20;;
65234;SDS011;51820;48.374;10.930;2023-04-03T16:03:04;7.40;;;1.50;;
65234;SDS011;51820;48.374;10.930;2023-04-03T16:05:35;6.07;;;1.95;;
65234;SDS011;51820;48.374;10.930;2023-04-03T16:08:07;4.63;;;1.50;;
65234;SDS011;51820;48.374;10.930;2023-04-03T16:10:36;6.07;;;1.77;;
65234;SDS011;51820;48.374;10.930;2023-04-03T16:13:05;4.72;;;1.10;;
65234;SDS011;51820;48.374;10.930;2023-04-03T16:15:34;4.97;;;1.30;;
65234;SDS011;51820;48.374;10.930;2023-04-03T16:18:03;4.38;;;1.25;;
65234;SDS011;51820;48.374;10.930;2023-04-03T16:20:33;5.93;;;1.40;;
65234;SDS011;51820;48.374;10.930;2023-04-03T16:23:03;4.68;;;1.15;;
65234;SDS011;51820;48.374;10.930;2023-04-03T16:28:19;5.60;;;1.30;;
65234;SDS011;51820;48.374;10.930;2023-04-03T16:30:48;4.53;;;1.17;;
65234;SDS011;51820;48.374;10.930;2023-04-03T16:33:20;4.57;;;1.10;;
65234;SDS011;51820;48.374;10.930;2023-04-03T16:36:27;4.90;;;1.40;;
65234;SDS011;51820;48.374;10.930;2023-04-03T16:38:58;5.93;;;1.48;;
65234;SDS011;51820;48.374;10.930;2023-04-03T16:41:34;5.75;;;1.67;;
65234;SDS011;51820;48.374;10.930;2023-04-03T16:44:03;5.95;;;2.00;;
65234;SDS011;51820;48.374;10.930;2023-04-03T16:46:38;5.90;;;1.80;;
65234;SDS011;51820;48.374;10.930;2023-04-03T16:49:07;5.38;;;1.30;;
65234;SDS011;51820;48.374;10.930;2023-04-03T16:51:36;4.47;;;1.20;;
65234;SDS011;51820;48.374;10.930;2023-04-03T16:54:04;5.10;;;1.20;;
65234;SDS011;51820;48.374;10.930;2023-04-03T17:00:28;6.27;;;1.60;;
65234;SDS011;51820;48.374;10.930;2023-04-03T17:02:57;8.10;;;2.58;;
65234;SDS011;51820;48.374;10.930;2023-04-03T17:05:26;10.00;;;3.03;;
65234;SDS011;51820;48.374;10.930;2023-04-03T17:07:54;12.25;;;4.43;;
65234;SDS011;51820;48.374;10.930;2023-04-03T17:10:24;11.35;;;3.78;;
65234;SDS011;51820;48.374;10.930;2023-04-03T17:12:58;8.03;;;2.50;;
65234;SDS011;51820;48.374;10.930;2023-04-03T17:15:49;6.70;;;1.90;;
65234;SDS011;51820;48.374;10.930;2023-04-03T17:18:18;5.35;;;1.35;;
65234;SDS011;51820;48.374;10.930;2023-04-03T17:21:40;4.47;;;1.38;;
65234;SDS011;51820;48.374;10.930;2023-04-03T17:27:57;5.10;;;1.50;;
65234;SDS011;51820;48.374;10.930;2023-04-03T17:30:30;6.38;;;1.55;;
65234;SDS011;51820;48.374;10.930;2023-04-03T17:33:40;6.63;;;1.60;;
65234;SDS011;51820;48.374;10.930;2023-04-03T17:36:10;5.38;;;1.95;;
65234;SDS011;51820;48.374;10.930;2023-04-03T17:43:04;4.87;;;1.40;;
65234;SDS011;51820;48.374;10.930;2023-04-03T17:45:36;5.43;;;1.30;;
65234;SDS011;51820;48.374;10.930;2023-04-03T17:48:06;5.85;;;1.27;;
65234;SDS011;51820;48.374;10.930;2023-04-03T17:50:39;5.28;;;1.50;;
65234;SDS011;51820;48.374;10.930;2023-04-03T17:53:07;5.45;;;1.80;;
65234;SDS011;51820;48.374;10.930;2023-04-03T17:55:41;8.97;;;1.47;;
65234;SDS011;51820;48.374;10.930;2023-04-03T18:01:08;7.55;;;1.75;;
65234;SDS011;51820;48.374;10.930;2023-04-03T18:03:37;5.80;;;1.80;;
65234;SDS011;51820;48.374;10.930;2023-04-03T18:06:21;8.07;;;2.58;;